Flight Track Log - Related Links

Times and Time Zones

All times are in EDT time to prevent confusion due to time zone crossing. See the JBU732 flight status page for this flight to view local times or setup timezone preferences in your user account.

Time Position Orientation Groundspeed Altitude Reporting Facility
EDT Latitude Longitude Course Direction KTS MPH feet Rate Location/Type
Wed 11:26:08 AM 18.5167 -67.1333 305° West 260 299 2,000  Level San Juan Center
Wed 11:27:08 AM 18.5667 -67.2167 302° West 290 334 5,200 3,050 Climbing San Juan Center
Wed 11:28:00 AM 18.7781 -67.4838 305° West  Level FlightAware Approximate
Wed 11:28:08 AM 18.6167 -67.2833 308° West 300 345 8,100  Level San Juan Center
Wed 11:29:09 AM 18.6833 -67.3500 317° Northwest 340 391 10,700 2,033 Climbing San Juan Center
Wed 11:30:09 AM 18.7500 -67.4333 310° West 350 403 12,200 1,850 Climbing San Juan Center
Wed 11:31:09 AM 18.8500 -67.5000 328° Northwest 380 437 14,400 2,479 Climbing San Juan Center
Wed 11:32:10 AM 18.9500 -67.5500 335° Northwest 410 472 17,200 2,826 Climbing San Juan Center
Wed 11:33:10 AM 19.0167 -67.6167 317° Northwest 360 414 20,100 2,182 Climbing San Juan Center
Wed 11:34:11 AM 19.0833 -67.7000 310° West 340 391 21,600 992 Climbing San Juan Center
Wed 11:35:11 AM 19.1500 -67.7833 310° West 420 483 22,100 600 Climbing San Juan Center
Wed 11:36:11 AM 19.2167 -67.9000 301° West 420 483 22,800 950 Climbing San Juan Center
Wed 11:37:11 AM 19.2833 -68.0000 305° West 420 483 24,000 1,289 Climbing San Juan Center
Wed 11:38:12 AM 19.3500 -68.1167 301° West 440 506 25,400 1,140 Climbing San Juan Center
Wed 11:39:12 AM 19.4167 -68.2167 305° West 450 518 26,300 1,000 Climbing San Juan Center
Wed 11:40:12 AM 19.4667 -68.3167 298° West 460 529 27,400 1,000 Climbing San Juan Center
Wed 11:42:42 AM 19.6517 -68.6325 302° West 483 556 29,800 1,086 Climbing Miami Center
Wed 11:43:42 AM 19.7242 -68.7469 304° West 483 556 31,200 1,200 Climbing Miami Center
Wed 11:44:42 AM 19.8036 -68.8764 303° West 477 549 32,200 950 Climbing Miami Center
Wed 11:45:42 AM 19.8692 -68.9806 304° West 477 549 33,100 1,200 Climbing Miami Center
Wed 11:46:42 AM 19.9372 -69.0911 303° West 471 542 34,600 1,300 Climbing Miami Center
Wed 11:47:42 AM 20.0072 -69.2039 303° West 466 536 35,700 700 Climbing Miami Center
Wed 11:48:42 AM 20.0750 -69.3147 303° West 460 529 36,000 150 Climbing Miami Center
Wed 11:49:42 AM 20.1428 -69.4256 303° West 460 529 36,000 200 Level Miami Center
Wed 11:50:42 AM 20.2128 -69.5389 303° West 460 529 36,400 1,000 Climbing Miami Center
Wed 11:51:42 AM 20.2783 -69.6478 303° West 460 529 38,000 800 Climbing Miami Center
Wed 11:52:42 AM 20.3436 -69.7550 303° West 443 510 38,000  Level Miami Center
Wed 11:53:42 AM 20.4111 -69.8642 303° West 437 503 38,000  Level Miami Center
Wed 11:54:42 AM 20.4764 -69.9736 302° West 442 509 38,000  Level Miami Center
Wed 11:55:42 AM 20.5456 -70.0806 305° West 442 509 38,000  Level Miami Center
Wed 11:56:42 AM 20.6108 -70.1925 302° West 442 509 38,000  Level Miami Center
Wed 11:57:42 AM 20.6781 -70.3022 303° West 442 509 38,000  Level Miami Center
Wed 11:58:42 AM 20.7431 -70.4119 302° West 442 509 38,000  Level Miami Center
Wed 11:59:42 AM 20.8122 -70.5239 303° West 442 509 38,000  Level Miami Center
Wed 12:00:42 PM 20.8772 -70.6364 302° West 442 509 38,000  Level Miami Center
Wed 12:01:42 PM 20.9422 -70.7442 303° West 442 509 38,000  Level Miami Center
Wed 12:02:42 PM 21.0089 -70.8544 303° West 441 507 38,000  Level Miami Center
Wed 12:03:42 PM 21.0758 -70.9647 303° West 441 507 38,000  Level Miami Center
Wed 12:04:42 PM 21.1450 -71.0864 301° West 441 507 38,000  Level Miami Center
Wed 12:05:42 PM 21.2097 -71.1992 302° West 441 507 38,000  Level Miami Center
Wed 12:06:42 PM 21.2764 -71.3142 302° West 441 507 38,000  Level Miami Center
Wed 12:07:42 PM 21.3431 -71.4250 303° West 441 507 38,000  Level Miami Center
Wed 12:08:42 PM 21.4114 -71.5336 304° West 441 507 38,000  Level Miami Center
Wed 12:09:42 PM 21.4756 -71.6425 302° West 441 507 38,000  Level Miami Center
Wed 12:10:42 PM 21.5400 -71.7561 301° West 441 507 38,000  Level Miami Center
Wed 12:11:42 PM 21.6061 -71.8650 303° West 441 507 38,000  Level Miami Center
Wed 12:12:42 PM 21.6681 -71.9742 301° West 436 502 38,000  Level Miami Center
Wed 12:13:42 PM 21.7342 -72.0836 303° West 436 502 38,000  Level Miami Center
Wed 12:14:42 PM 21.8003 -72.1953 303° West 436 502 38,000  Level Miami Center
Wed 12:15:42 PM 21.8642 -72.3092 301° West 441 507 38,000  Level Miami Center
Wed 12:16:42 PM 21.9281 -72.4189 302° West 441 507 38,000  Level Miami Center
Wed 12:17:42 PM 21.9939 -72.5308 302° West 441 507 38,000  Level Miami Center
Wed 12:18:42 PM 22.0553 -72.6428 301° West 441 507 38,000  Level Miami Center
Wed 12:19:42 PM 22.1144 -72.7397 303° West 441 507 38,000  Level Miami Center
Wed 12:20:42 PM 22.1781 -72.8519 301° West 441 507 38,000  Level Miami Center
Wed 12:21:42 PM 22.2414 -72.9644 301° West 441 507 38,000  Level Miami Center
Wed 12:22:42 PM 22.3050 -73.0792 301° West 441 507 38,000  Level Miami Center
Wed 12:23:42 PM 22.3703 -73.1894 303° West 441 507 38,000  Level Miami Center
Wed 12:24:42 PM 22.4356 -73.3022 302° West 441 507 38,000  Level Miami Center
Wed 12:25:42 PM 22.4986 -73.4128 302° West 441 507 38,000  Level Miami Center
Wed 12:26:42 PM 22.5575 -73.5239 300° West 435 501 38,000  Level Miami Center
Wed 12:27:42 PM 22.6186 -73.6369 300° West 435 501 38,000  Level Miami Center
Wed 12:28:42 PM 22.6794 -73.7525 300° West 441 507 38,000  Level Miami Center
Wed 12:29:42 PM 22.7464 -73.8633 303° West 441 507 38,000  Level Miami Center
Wed 12:30:42 PM 22.8133 -73.9744 303° West 436 502 38,000  Level Miami Center
Wed 12:31:42 PM 22.8739 -74.0903 300° West 442 509 38,000  Level Miami Center
Wed 12:32:42 PM 22.9386 -74.2039 302° West 442 509 38,000  Level Miami Center
Wed 12:33:42 PM 23.0033 -74.3200 301° West 442 509 38,000  Level Miami Center
Wed 12:34:42 PM 23.0658 -74.4361 300° West 442 509 38,000  Level Miami Center
Wed 12:35:42 PM 23.1303 -74.5478 302° West 442 509 38,000  Level Miami Center
Wed 12:36:42 PM 23.1925 -74.6642 300° West 442 509 38,000  Level Miami Center
Wed 12:37:42 PM 23.2592 -74.7808 302° West 442 509 38,000  Level Miami Center
Wed 12:38:42 PM 23.3253 -74.8950 302° West 442 509 38,000  Level Miami Center
Wed 12:39:42 PM 23.3894 -75.0117 301° West 442 509 38,000  Level Miami Center
Wed 12:40:42 PM 23.4536 -75.1286 301° West 442 509 38,000  Level Miami Center
Wed 12:41:42 PM 23.5175 -75.2433 301° West 442 509 38,000  Level Miami Center
Wed 12:42:42 PM 23.5814 -75.3603 301° West 442 509 38,000  Level Miami Center
Wed 12:43:42 PM 23.6475 -75.4775 302° West 442 509 38,000  Level Miami Center
Wed 12:44:42 PM 23.7133 -75.5994 301° West 447 514 38,000  Level Miami Center
Wed 12:45:42 PM 23.7769 -75.7167 301° West 452 520 38,000  Level Miami Center
Wed 12:46:42 PM 23.8425 -75.8389 300° West 458 527 38,000  Level Miami Center
Wed 12:47:42 PM 23.9039 -75.9589 299° West 458 527 38,000  Level Miami Center
Wed 12:48:42 PM 23.9694 -76.0789 301° West 458 527 38,000  Level Miami Center
Wed 12:49:42 PM 24.0328 -76.1967 301° West 458 527 38,000  Level Miami Center
Wed 12:50:42 PM 24.0981 -76.3169 301° West 458 527 38,000  Level Miami Center
Wed 12:51:42 PM 24.1611 -76.4375 300° West 458 527 38,000  Level Miami Center
Wed 12:52:42 PM 24.2219 -76.5558 299° West 458 527 38,000  Level Miami Center
Wed 12:53:42 PM 24.2892 -76.6811 301° West 447 514 38,000  Level Miami Center
Wed 12:54:42 PM 24.3539 -76.7994 301° West 447 514 38,000  Level Miami Center
Wed 12:55:42 PM 24.4167 -76.9181 300° West 447 514 38,000  Level Miami Center
Wed 12:56:42 PM 24.4708 -77.0233 299° West 441 507 38,000  Level Miami Center
Wed 12:57:42 PM 24.5314 -77.1419 299° West 441 507 38,000  Level Miami Center
Wed 12:58:42 PM 24.5981 -77.2611 302° West 446 513 38,000  Level Miami Center
Wed 12:59:42 PM 24.6583 -77.3847 298° West 446 513 38,000  Level Miami Center
Wed 01:00:42 PM 24.7206 -77.5039 300° West 446 513 38,000  Level Miami Center
Wed 01:01:42 PM 24.7825 -77.6281 299° West 451 519 38,000  Level Miami Center
Wed 01:02:42 PM 24.8444 -77.7497 299° West 451 519 38,000  Level Miami Center
Wed 01:03:42 PM 24.9086 -77.8692 301° West 457 526 38,000  Level Miami Center
Wed 01:04:42 PM 24.9747 -77.9889 301° West 457 526 38,000  Level Miami Center
Wed 01:05:42 PM 25.0364 -78.1089 300° West 457 526 38,000  Level Miami Center
Wed 01:06:42 PM 25.0981 -78.2311 299° West 457 526 38,000  Level Miami Center
Wed 01:07:42 PM 25.1617 -78.3511 300° West 462 532 38,000  Level Miami Center
Wed 01:08:42 PM 25.2231 -78.4714 299° West 462 532 38,000  Level Miami Center
Wed 01:09:42 PM 25.2822 -78.5917 299° West 462 532 38,000  Level Miami Center
Wed 01:10:42 PM 25.3456 -78.7122 300° West 457 526 38,000  Level Miami Center
Wed 01:11:42 PM 25.4067 -78.8328 299° West 452 520 38,000  Level Miami Center
Wed 01:12:42 PM 25.4697 -78.9625 298° West 446 513 38,000 -50 Level Miami Center
Wed 01:13:42 PM 25.5267 -79.0650 302° West 441 507 37,900  Descending Miami Center
Wed 01:14:42 PM 25.5875 -79.1858 299° West 441 507 38,000 50 Climbing Miami Center
Wed 01:15:42 PM 25.6483 -79.3092 299° West 446 513 38,000 -250 Level Miami Center
Wed 01:16:42 PM 25.7089 -79.4281 299° West 446 513 37,500 -750 Descending Miami Center
Wed 01:17:42 PM 25.7672 -79.5492 298° West 446 513 36,500 -1,000 Descending Miami Center
Wed 01:18:42 PM 25.8297 -79.6706 300° West 452 520 35,500 -950 Descending Miami Center
Wed 01:19:42 PM 25.8922 -79.7944 299° West 452 520 34,600 -950 Descending Miami Center
Wed 01:20:42 PM 25.9542 -79.9231 298° West 463 533 33,600 -1,100 Descending Miami Center
Wed 01:21:42 PM 26.0206 -80.0428 302° West 469 540 32,400 -1,750 Descending Miami Center
Wed 01:22:42 PM 26.1058 -80.1514 311° West 469 540 30,100 -1,250 Descending Miami Center
Wed 01:23:42 PM 26.2106 -80.2353 324° Northwest 459 528 29,900 -1,400 Descending Miami Center
Wed 01:24:42 PM 26.3261 -80.2967 335° Northwest 459 528 27,300 -2,200 Descending Miami Center
Wed 01:25:42 PM 26.4375 -80.3578 334° Northwest 454 522 25,500 -2,000 Descending Miami Center
Wed 01:26:42 PM 26.5492 -80.4053 339° North 441 507 23,300 -2,050 Descending Miami Center
Wed 01:27:42 PM 26.6564 -80.4550 337° Northwest 425 489 21,400 -2,050 Descending Miami Center
Wed 01:28:42 PM 26.7683 -80.4933 343° North 400 460 19,200 -2,100 Descending Miami Center
Wed 01:29:42 PM 26.8592 -80.5264 342° North 386 444 17,200 -1,100 Descending Miami Center
Wed 01:30:42 PM 26.9519 -80.5783 333° Northwest 371 427 17,000 -100 Descending Miami Center
Wed 01:31:42 PM 27.0547 -80.6375 333° Northwest 376 433 17,000  Level Miami Center
Wed 01:32:42 PM 27.1453 -80.6917 332° Northwest 376 433 17,000  Level Miami Center
Wed 01:33:42 PM 27.2397 -80.7461 333° Northwest 371 427 17,000  Level Miami Center
Wed 01:34:42 PM 27.3300 -80.8053 330° Northwest 371 427 17,000  Level Miami Center
Wed 01:35:42 PM 27.4292 -80.8508 338° Northwest 371 427 17,000 -500 Level Miami Center
Wed 01:36:42 PM 27.5258 -80.9011 335° Northwest 371 427 16,000 -1,150 Descending Miami Center
Wed 01:37:42 PM 27.6206 -80.9489 336° Northwest 383 441 14,700 -1,150 Descending Miami Center
Wed 01:38:42 PM 27.7150 -80.9969 336° Northwest 370 426 13,700 -1,042 Descending Miami Center
Wed 01:40:29 PM 27.8833 -81.0833 336° Northwest 354 407 11,800 -970 Descending Orlando TRACON
Wed 01:41:29 PM 27.9667 -81.1167 341° North 354 407 11,000 -421 Descending Orlando TRACON
Wed 01:42:23 PM 28.0500 -81.1500 341° North 345 397 11,000 -500 Level Orlando TRACON
Wed 01:43:29 PM 28.1500 -81.1667 352° North 297 342 10,000 -952 Descending Orlando TRACON
Wed 01:44:29 PM 28.2333 -81.1833 350° North 296 341 9,000 -522 Descending Orlando TRACON
Wed 01:45:24 PM 28.3000 -81.1833 360° North 245 282 9,000  Level Orlando TRACON
Wed 01:46:30 PM 28.3667 -81.1833 360° North 249 287 9,000 -727 Level Orlando TRACON
Wed 01:47:36 PM 28.4500 -81.1833 360° North 246 283 7,400 -1,650 Descending Orlando TRACON
Wed 01:48:30 PM 28.5000 -81.2000 344° North 233 268 5,700 -1,950 Descending Orlando TRACON
Wed 01:49:36 PM 28.5500 -81.2500 319° Northwest 203 234 3,500 -1,524 Descending Orlando TRACON
Wed 01:50:36 PM 28.5500 -81.3000 270° West 185 213 2,500 -895 Descending Orlando TRACON
Wed 01:51:30 PM 28.5333 -81.3167 221° Southwest 162 186 1,800 -900 Descending Orlando TRACON
Wed 01:52:36 PM 28.4833 -81.3167 180° South 147 169 700 -1,000 Descending Orlando TRACON

Login

Don't have an account? Register now (free) for customized features, flight alerts, and more!